createdAt,value
2017-12-21T00:02:14.289Z,1.00
2017-12-21T00:04:41.769Z,0.99
2017-12-21T00:07:09.313Z,0.91
2017-12-21T00:09:36.851Z,0.77
2017-12-21T00:12:04.321Z,0.90
2017-12-21T00:14:31.816Z,0.90
2017-12-21T00:16:59.281Z,0.85
2017-12-21T00:19:26.745Z,0.97
2017-12-21T00:21:54.224Z,0.89
2017-12-21T00:24:21.685Z,0.95
2017-12-21T00:26:49.152Z,0.85
2017-12-21T00:29:16.641Z,0.80
2017-12-21T00:31:44.105Z,0.89
2017-12-21T00:34:11.568Z,0.85
2017-12-21T00:36:39.053Z,0.72
2017-12-21T00:39:06.517Z,0.76
2017-12-21T00:41:33.985Z,0.76
2017-12-21T00:44:01.466Z,0.82
2017-12-21T00:46:28.928Z,0.74
2017-12-21T00:48:56.393Z,0.76
2017-12-21T00:51:23.872Z,0.68
2017-12-21T00:53:51.341Z,0.69
2017-12-21T00:56:18.804Z,0.71
2017-12-21T00:58:46.285Z,0.64
2017-12-21T01:01:13.752Z,0.83
2017-12-21T01:03:41.220Z,0.70
2017-12-21T01:06:08.701Z,0.68
2017-12-21T01:08:36.164Z,0.67
2017-12-21T01:11:03.650Z,0.65
2017-12-21T01:13:31.118Z,0.72
2017-12-21T01:15:58.605Z,0.57
2017-12-21T01:18:26.076Z,0.55
2017-12-21T01:20:53.556Z,0.56
2017-12-21T01:23:21.020Z,0.59
2017-12-21T01:25:48.507Z,0.39
2017-12-21T01:28:15.968Z,0.34
2017-12-21T01:30:43.452Z,0.34
2017-12-21T01:33:10.923Z,0.38
2017-12-21T01:35:38.400Z,0.45
2017-12-21T01:38:05.873Z,0.43
2017-12-21T01:40:33.352Z,0.29
2017-12-21T01:43:00.813Z,0.31
2017-12-21T01:45:28.293Z,0.48
2017-12-21T01:47:55.757Z,0.38
2017-12-21T01:50:23.241Z,0.21
2017-12-21T01:52:50.708Z,0.14
2017-12-21T01:55:18.188Z,0.35
2017-12-21T01:57:45.652Z,0.32
2017-12-21T02:00:13.140Z,0.29
2017-12-21T02:02:40.609Z,0.18
2017-12-21T02:05:08.097Z,0.25
2017-12-21T02:07:35.570Z,0.26
2017-12-21T02:10:03.053Z,0.39
2017-12-21T02:12:30.518Z,0.36
2017-12-21T02:14:58.005Z,0.31
2017-12-21T02:17:25.477Z,0.32
2017-12-21T02:19:52.956Z,0.33
2017-12-21T02:22:20.430Z,0.30
2017-12-21T02:24:47.909Z,0.20
2017-12-21T02:27:15.377Z,0.24
2017-12-21T02:29:42.857Z,0.22
2017-12-21T02:32:10.324Z,0.22
2017-12-21T02:34:37.811Z,0.23
2017-12-21T02:37:05.276Z,0.27
2017-12-21T02:39:32.841Z,0.26
2017-12-21T02:42:00.277Z,0.21
2017-12-21T02:44:27.765Z,0.19
2017-12-21T02:46:56.076Z,0.25
2017-12-21T02:49:23.546Z,0.20
2017-12-21T02:51:51.026Z,0.19
2017-12-21T02:54:18.503Z,0.16
2017-12-21T02:56:45.992Z,0.13
2017-12-21T02:59:13.456Z,0.19
2017-12-21T03:01:40.940Z,0.17
2017-12-21T03:04:08.401Z,0.38
2017-12-21T03:06:35.886Z,0.49
2017-12-21T03:09:03.349Z,0.25
2017-12-21T03:11:30.829Z,0.18
2017-12-21T03:13:58.301Z,0.33
2017-12-21T03:16:25.780Z,0.43
2017-12-21T03:18:53.249Z,0.46
2017-12-21T03:21:20.728Z,0.32
2017-12-21T03:23:48.255Z,0.18
2017-12-21T03:26:15.737Z,0.31
2017-12-21T03:28:43.204Z,0.33
2017-12-21T03:31:10.682Z,0.22
2017-12-21T03:33:38.144Z,0.17
2017-12-21T03:36:05.625Z,0.40
2017-12-21T03:38:33.088Z,0.49
2017-12-21T03:41:00.578Z,0.41
2017-12-21T03:43:28.048Z,0.37
2017-12-21T03:45:55.541Z,0.43
2017-12-21T03:48:23.004Z,0.56
2017-12-21T03:50:50.489Z,0.50
2017-12-21T03:53:17.954Z,0.57
2017-12-21T03:55:45.433Z,0.36
2017-12-21T03:58:12.892Z,0.40
2017-12-21T04:00:40.375Z,0.29
2017-12-21T04:03:07.842Z,0.26
2017-12-21T04:05:35.328Z,0.27
2017-12-21T04:08:02.793Z,0.24
2017-12-21T04:10:30.273Z,0.40
2017-12-21T04:12:57.746Z,0.40
2017-12-21T04:15:25.225Z,0.37
2017-12-21T04:17:52.688Z,0.34
2017-12-21T04:20:20.173Z,0.32
2017-12-21T04:22:47.633Z,0.42
2017-12-21T04:25:15.096Z,0.38
2017-12-21T04:27:42.577Z,0.50
2017-12-21T04:30:10.044Z,0.51
2017-12-21T04:32:37.526Z,0.55
2017-12-21T04:35:04.988Z,0.55
2017-12-21T04:37:32.465Z,0.62
2017-12-21T04:39:59.933Z,0.72
2017-12-21T04:42:27.416Z,0.88
2017-12-21T04:44:54.892Z,0.73
2017-12-21T04:47:22.376Z,0.80
2017-12-21T04:49:49.841Z,0.56
2017-12-21T04:52:17.319Z,0.57
2017-12-21T04:54:44.784Z,0.50
2017-12-21T04:57:12.340Z,0.57
2017-12-21T04:59:39.814Z,0.55
2017-12-21T05:02:07.300Z,0.65
2017-12-21T05:04:34.764Z,0.94
2017-12-21T05:07:02.244Z,0.85
2017-12-21T05:09:29.709Z,0.87
2017-12-21T05:11:57.200Z,0.92
2017-12-21T05:14:24.673Z,0.83
2017-12-21T05:16:52.156Z,0.61
2017-12-21T05:19:19.620Z,0.68
2017-12-21T05:21:47.105Z,0.80
2017-12-21T05:24:14.568Z,0.64
2017-12-21T05:26:42.048Z,0.64
2017-12-21T05:29:09.508Z,0.54
2017-12-21T05:31:36.988Z,0.57
2017-12-21T05:34:04.448Z,0.75
2017-12-21T05:36:31.928Z,0.70
2017-12-21T05:38:59.405Z,0.78
2017-12-21T05:41:26.888Z,0.73
2017-12-21T05:43:54.353Z,0.72
2017-12-21T05:46:21.836Z,0.48
2017-12-21T05:48:49.296Z,0.54
2017-12-21T05:51:16.760Z,0.62
2017-12-21T05:53:44.446Z,0.55
2017-12-21T05:56:11.913Z,0.63
2017-12-21T05:58:39.397Z,0.57
2017-12-21T06:01:06.877Z,0.52
2017-12-21T06:03:34.365Z,0.57
2017-12-21T06:06:01.829Z,0.49
2017-12-21T06:08:29.319Z,0.31
2017-12-21T06:10:56.784Z,0.34
2017-12-21T06:13:24.272Z,0.45
2017-12-21T06:15:51.742Z,0.45
2017-12-21T06:18:19.293Z,0.36
2017-12-21T06:20:46.730Z,0.46
2017-12-21T06:23:14.209Z,0.42
2017-12-21T06:25:41.669Z,0.36
2017-12-21T06:28:09.228Z,0.39
2017-12-21T06:30:36.692Z,0.36
2017-12-21T06:33:04.168Z,0.42
2017-12-21T06:35:31.632Z,0.40
2017-12-21T06:37:59.121Z,0.22
2017-12-21T06:40:26.584Z,0.35
2017-12-21T06:42:54.065Z,0.25
2017-12-21T06:45:21.532Z,0.19
2017-12-21T06:47:49.013Z,0.15
2017-12-21T06:50:16.485Z,0.12
2017-12-21T06:52:43.972Z,0.18
2017-12-21T06:55:11.440Z,0.22
2017-12-21T06:57:38.925Z,0.04
2017-12-21T07:00:06.385Z,0.16
2017-12-21T07:02:33.863Z,0.32
2017-12-21T07:05:01.360Z,0.19
2017-12-21T07:07:28.845Z,0.09
2017-12-21T07:09:56.313Z,0.31
2017-12-21T07:12:23.792Z,0.30
2017-12-21T07:14:51.257Z,0.29
2017-12-21T07:17:18.749Z,0.16
2017-12-21T07:19:46.212Z,0.07
2017-12-21T07:22:13.677Z,0.03
2017-12-21T07:24:41.210Z,-0.10
2017-12-21T07:27:08.709Z,0.06
2017-12-21T07:29:36.188Z,0.07
2017-12-21T07:32:03.649Z,0.12
2017-12-21T07:34:31.132Z,0.12
2017-12-21T07:36:58.597Z,0.02
2017-12-21T07:39:26.082Z,0.04
2017-12-21T07:41:53.545Z,0.02
2017-12-21T07:44:21.025Z,0.04
2017-12-21T07:46:48.497Z,0.08
2017-12-21T07:49:15.990Z,0.09
2017-12-21T07:51:43.457Z,0.22
2017-12-21T07:54:10.936Z,0.27
2017-12-21T07:56:38.397Z,0.21
2017-12-21T07:59:05.881Z,0.18
2017-12-21T08:01:33.345Z,0.12
2017-12-21T08:04:00.825Z,0.31
2017-12-21T08:06:28.290Z,0.30
2017-12-21T08:08:55.772Z,0.36
2017-12-21T08:11:23.237Z,0.35
2017-12-21T08:13:50.721Z,0.33
2017-12-21T08:16:18.185Z,0.42
2017-12-21T08:18:45.665Z,0.44
2017-12-21T08:21:13.129Z,0.56
2017-12-21T08:23:40.615Z,0.57
2017-12-21T08:26:08.085Z,0.46
2017-12-21T08:28:35.565Z,0.55
2017-12-21T08:31:03.051Z,0.54
2017-12-21T08:33:30.533Z,0.64
2017-12-21T08:35:57.992Z,0.60
2017-12-21T08:38:25.493Z,0.65
2017-12-21T08:40:52.960Z,0.91
2017-12-21T08:43:20.454Z,0.83
2017-12-21T08:45:47.912Z,0.92
2017-12-21T08:48:15.385Z,1.15
2017-12-21T08:50:42.844Z,1.15
2017-12-21T08:53:10.325Z,1.45
2017-12-21T08:55:37.793Z,1.67
2017-12-21T08:58:05.256Z,2.04
2017-12-21T09:00:32.725Z,2.29
2017-12-21T09:03:00.184Z,2.78
2017-12-21T09:05:27.677Z,2.73
2017-12-21T09:07:55.140Z,2.64
2017-12-21T09:10:22.689Z,2.74
2017-12-21T09:12:50.149Z,2.53
2017-12-21T09:15:17.633Z,2.78
2017-12-21T09:17:45.104Z,2.61
2017-12-21T09:20:12.585Z,2.53
2017-12-21T09:22:40.036Z,2.26
2017-12-21T09:25:07.513Z,2.30
2017-12-21T09:27:34.972Z,2.57
2017-12-21T09:30:02.446Z,2.76
2017-12-21T09:32:29.908Z,2.67
2017-12-21T09:34:57.389Z,2.67
2017-12-21T09:37:24.844Z,2.53
2017-12-21T09:39:52.317Z,2.21
2017-12-21T09:42:19.773Z,2.33
2017-12-21T09:44:47.253Z,2.68
2017-12-21T09:47:14.704Z,2.58
2017-12-21T09:49:42.173Z,2.76
2017-12-21T09:52:09.636Z,3.08
2017-12-21T09:54:37.109Z,2.84
2017-12-21T09:57:04.612Z,3.07
2017-12-21T09:59:32.088Z,3.14
2017-12-21T10:01:59.551Z,3.09
2017-12-21T10:04:27.033Z,3.31
2017-12-21T10:06:54.492Z,3.19
2017-12-21T10:09:21.960Z,3.46
2017-12-21T10:11:49.421Z,3.62
2017-12-21T10:14:16.897Z,3.31
2017-12-21T10:16:44.356Z,3.55
2017-12-21T10:19:11.833Z,3.46
2017-12-21T10:21:39.280Z,3.47
2017-12-21T10:24:06.828Z,3.27
2017-12-21T10:26:34.285Z,3.71
2017-12-21T10:29:01.756Z,3.51
2017-12-21T10:31:29.212Z,3.74
2017-12-21T10:33:56.689Z,4.03
2017-12-21T10:36:24.146Z,3.88
2017-12-21T10:38:51.665Z,4.02
2017-12-21T10:41:19.154Z,3.82
2017-12-21T10:43:46.626Z,3.83
2017-12-21T10:46:14.080Z,4.12
2017-12-21T10:48:41.553Z,4.29
2017-12-21T10:51:09.013Z,4.12
2017-12-21T10:53:36.480Z,4.43
2017-12-21T10:56:03.933Z,4.28
2017-12-21T10:58:31.409Z,4.70
2017-12-21T11:00:58.860Z,5.14
2017-12-21T11:03:26.334Z,4.60
2017-12-21T11:05:53.785Z,4.41
2017-12-21T11:08:21.264Z,4.36
2017-12-21T11:10:48.716Z,4.73
2017-12-21T11:13:16.168Z,5.21
2017-12-21T11:15:43.649Z,5.05
2017-12-21T11:18:11.108Z,4.87
2017-12-21T11:20:38.576Z,5.33
2017-12-21T11:23:06.033Z,5.25
2017-12-21T11:25:33.509Z,5.02
2017-12-21T11:28:00.965Z,5.16
2017-12-21T11:30:28.441Z,5.03
2017-12-21T11:32:55.937Z,5.12
2017-12-21T11:35:23.404Z,5.72
2017-12-21T11:37:50.856Z,5.73
2017-12-21T11:40:18.333Z,6.05
2017-12-21T11:42:45.792Z,5.10
2017-12-21T11:45:13.265Z,5.12
2017-12-21T11:47:40.721Z,5.17
2017-12-21T11:50:08.189Z,5.18
2017-12-21T11:52:35.645Z,5.03
2017-12-21T11:55:03.164Z,5.03
2017-12-21T11:57:30.621Z,5.07
2017-12-21T11:59:58.578Z,5.02
2017-12-21T12:02:26.034Z,5.12
2017-12-21T12:04:53.507Z,4.95
2017-12-21T12:07:20.965Z,4.92
2017-12-21T12:09:48.432Z,4.56
2017-12-21T12:12:15.888Z,4.47
2017-12-21T12:14:43.365Z,4.52
2017-12-21T12:17:10.816Z,4.59
2017-12-21T12:19:38.303Z,4.65
2017-12-21T12:22:05.761Z,4.65
2017-12-21T12:24:33.233Z,4.76
2017-12-21T12:27:00.697Z,4.70
2017-12-21T12:29:28.173Z,4.78
2017-12-21T12:31:55.642Z,4.74
2017-12-21T12:34:23.120Z,4.69
2017-12-21T12:36:50.638Z,4.62
2017-12-21T12:39:18.132Z,4.69
2017-12-21T12:41:45.588Z,4.72
2017-12-21T12:44:13.041Z,4.67
2017-12-21T12:46:40.518Z,4.63
2017-12-21T12:49:07.977Z,4.65
2017-12-21T12:51:35.460Z,4.72
2017-12-21T12:54:02.928Z,4.66
2017-12-21T12:56:30.397Z,4.69
2017-12-21T12:58:57.869Z,4.75
2017-12-21T13:01:25.336Z,4.51
2017-12-21T13:03:52.792Z,4.46
2017-12-21T13:06:20.332Z,4.57
2017-12-21T13:08:47.816Z,4.47
2017-12-21T13:11:15.739Z,4.48
2017-12-21T13:13:43.215Z,4.51
2017-12-21T13:16:10.685Z,4.45
2017-12-21T13:18:38.146Z,4.59
2017-12-21T13:21:05.628Z,4.45
2017-12-21T13:23:33.085Z,4.61
2017-12-21T13:26:00.637Z,4.59
2017-12-21T13:28:28.089Z,4.42
2017-12-21T13:30:55.560Z,4.49
2017-12-21T13:33:23.061Z,4.50
2017-12-21T13:35:50.540Z,4.54
2017-12-21T13:38:18.004Z,4.59
2017-12-21T13:40:45.481Z,4.50
2017-12-21T13:43:12.941Z,4.48
2017-12-21T13:45:40.448Z,4.40
2017-12-21T13:48:07.917Z,4.11
2017-12-21T13:50:35.395Z,3.90
2017-12-21T13:53:02.863Z,3.87
2017-12-21T13:55:30.341Z,3.92
2017-12-21T13:57:57.793Z,3.82
2017-12-21T14:00:25.265Z,3.72
2017-12-21T14:02:52.724Z,3.62
2017-12-21T14:05:20.196Z,3.58
2017-12-21T14:07:47.697Z,3.58
2017-12-21T14:10:15.181Z,3.58
2017-12-21T14:12:42.637Z,3.50
2017-12-21T14:15:10.117Z,3.52
2017-12-21T14:17:37.568Z,3.33
2017-12-21T14:20:05.049Z,3.32
2017-12-21T14:22:32.936Z,3.31
2017-12-21T14:25:00.409Z,3.30
2017-12-21T14:27:27.878Z,3.27
2017-12-21T14:29:55.349Z,3.17
2017-12-21T14:32:22.809Z,3.06
2017-12-21T14:34:50.280Z,3.04
2017-12-21T14:37:17.737Z,2.98
2017-12-21T14:39:45.213Z,3.03
2017-12-21T14:42:12.673Z,2.96
2017-12-21T14:47:06.909Z,2.92
2017-12-21T14:49:34.391Z,2.87
2017-12-21T14:52:02.336Z,2.88
2017-12-21T14:54:29.812Z,2.87
2017-12-21T14:56:57.271Z,2.87
2017-12-21T14:59:24.798Z,2.89
2017-12-21T15:01:52.268Z,2.90
2017-12-21T15:04:19.752Z,2.91
2017-12-21T15:06:47.208Z,2.89
2017-12-21T15:09:14.687Z,2.93
2017-12-21T15:11:42.168Z,3.15
2017-12-21T15:14:09.629Z,2.97
2017-12-21T15:16:37.097Z,2.87
2017-12-21T15:19:04.566Z,2.90
2017-12-21T15:21:32.040Z,2.89
2017-12-21T15:23:59.502Z,2.81
2017-12-21T15:26:26.973Z,2.79
2017-12-21T15:28:54.437Z,2.83
2017-12-21T15:31:21.912Z,2.80
2017-12-21T15:33:49.375Z,2.79
2017-12-21T15:36:16.908Z,2.77
2017-12-21T15:38:44.600Z,2.82
2017-12-21T15:41:12.468Z,2.78
2017-12-21T15:43:39.953Z,2.83
2017-12-21T15:46:07.433Z,2.80
2017-12-21T15:48:34.916Z,2.80
2017-12-21T15:51:02.395Z,2.91
2017-12-21T15:53:29.861Z,2.87
2017-12-21T15:55:57.321Z,2.87
2017-12-21T15:58:24.825Z,2.77
2017-12-21T16:00:52.318Z,2.78
2017-12-21T16:03:19.814Z,2.79
2017-12-21T16:05:47.285Z,2.76
2017-12-21T16:08:14.756Z,2.77
2017-12-21T16:10:42.225Z,2.79
2017-12-21T16:13:09.704Z,2.77
2017-12-21T16:15:37.165Z,2.75
2017-12-21T16:18:04.648Z,2.74
2017-12-21T16:20:32.114Z,2.75
2017-12-21T16:22:59.598Z,2.75
2017-12-21T16:25:27.059Z,2.74
2017-12-21T16:27:54.544Z,2.74
2017-12-21T16:30:22.025Z,2.73
2017-12-21T16:32:49.509Z,2.79
2017-12-21T16:35:16.976Z,2.84
2017-12-21T16:37:44.457Z,2.76
2017-12-21T16:40:11.929Z,2.78
2017-12-21T16:42:39.410Z,2.76
2017-12-21T16:45:06.877Z,2.78
2017-12-21T16:47:34.356Z,2.82
2017-12-21T16:50:01.827Z,2.94
2017-12-21T16:52:29.312Z,2.82
2017-12-21T16:54:56.788Z,2.83
2017-12-21T16:57:24.277Z,2.87
2017-12-21T16:59:51.741Z,2.83
2017-12-21T17:02:19.220Z,2.89
2017-12-21T17:04:46.684Z,2.89
2017-12-21T17:07:14.194Z,2.86
2017-12-21T17:09:41.657Z,2.87
2017-12-21T17:12:09.127Z,2.88
2017-12-21T17:14:36.613Z,2.87
2017-12-21T17:17:04.074Z,2.91
2017-12-21T17:19:31.555Z,2.98
2017-12-21T17:21:59.064Z,2.98
2017-12-21T17:24:26.629Z,2.93
2017-12-21T17:26:54.100Z,3.00
2017-12-21T17:29:21.565Z,3.02
2017-12-21T17:31:49.049Z,2.98
2017-12-21T17:34:16.517Z,3.00
2017-12-21T17:36:44.000Z,2.98
2017-12-21T17:39:11.466Z,2.99
2017-12-21T17:41:38.949Z,3.02
2017-12-21T17:44:06.413Z,2.99
2017-12-21T17:46:33.904Z,3.04
2017-12-21T17:49:01.369Z,3.01
2017-12-21T17:51:28.850Z,3.02
2017-12-21T17:53:56.312Z,3.01
2017-12-21T17:56:23.792Z,3.00
2017-12-21T17:58:51.334Z,3.06
2017-12-21T18:01:18.812Z,3.04
2017-12-21T18:03:46.273Z,3.06
2017-12-21T18:06:13.737Z,3.07
2017-12-21T18:08:41.216Z,3.12
2017-12-21T18:11:08.685Z,3.15
2017-12-21T18:13:36.182Z,3.07
2017-12-21T18:16:03.650Z,3.09
2017-12-21T18:18:31.146Z,3.08
2017-12-21T18:20:58.618Z,3.06
2017-12-21T18:23:26.099Z,3.13
2017-12-21T18:25:53.561Z,3.16
2017-12-21T18:28:21.044Z,3.10
2017-12-21T18:30:48.512Z,3.13
2017-12-21T18:33:15.995Z,3.09
2017-12-21T18:35:43.461Z,3.13
2017-12-21T18:38:10.929Z,3.09
2017-12-21T18:40:38.429Z,3.09
2017-12-21T18:43:05.892Z,3.12
2017-12-21T18:45:33.373Z,3.11
2017-12-21T18:48:00.841Z,3.11
2017-12-21T18:50:28.329Z,3.15
2017-12-21T18:52:55.792Z,3.13
2017-12-21T18:55:23.282Z,3.13
2017-12-21T18:57:50.769Z,3.12
2017-12-21T19:00:18.237Z,3.13
2017-12-21T19:02:45.720Z,3.16
2017-12-21T19:05:13.181Z,3.15
2017-12-21T19:07:40.661Z,3.13
2017-12-21T19:10:08.149Z,3.15
2017-12-21T19:12:35.637Z,3.16
2017-12-21T19:15:03.121Z,3.15
2017-12-21T19:17:30.605Z,3.13
2017-12-21T19:19:58.124Z,3.14
2017-12-21T19:22:25.590Z,3.15
2017-12-21T19:24:53.068Z,3.18
2017-12-21T19:27:20.528Z,3.16
2017-12-21T19:29:48.074Z,3.14
2017-12-21T19:32:15.540Z,3.12
2017-12-21T19:34:43.025Z,3.18
2017-12-21T19:37:10.508Z,3.12
2017-12-21T19:39:38.004Z,3.17
2017-12-21T19:42:05.581Z,3.12
2017-12-21T19:44:33.055Z,3.11
2017-12-21T19:47:00.536Z,3.12
2017-12-21T19:49:28.017Z,3.17
2017-12-21T19:51:55.481Z,3.20
2017-12-21T19:54:23.022Z,3.12
2017-12-21T19:56:50.492Z,3.13
2017-12-21T19:59:17.978Z,3.15
2017-12-21T20:01:45.450Z,3.14
2017-12-21T20:04:12.933Z,3.15
2017-12-21T20:06:40.396Z,3.19
2017-12-21T20:09:07.857Z,3.17
2017-12-21T20:11:35.341Z,3.20
2017-12-21T20:14:02.830Z,3.17
2017-12-21T20:16:30.313Z,3.18
2017-12-21T20:18:57.781Z,3.18
2017-12-21T20:21:25.277Z,3.20
2017-12-21T20:23:52.741Z,3.20
2017-12-21T20:26:20.227Z,3.19
2017-12-21T20:28:47.693Z,3.19
2017-12-21T20:31:15.185Z,3.21
2017-12-21T20:33:42.657Z,3.19
2017-12-21T20:36:10.137Z,3.18
2017-12-21T20:38:37.625Z,3.19
2017-12-21T20:41:05.105Z,3.19
2017-12-21T20:43:32.590Z,3.20
2017-12-21T20:46:00.138Z,3.19
2017-12-21T20:48:27.605Z,3.21
2017-12-21T20:50:55.085Z,3.20
2017-12-21T20:53:22.548Z,3.25
2017-12-21T20:55:50.049Z,3.23
2017-12-21T20:58:17.513Z,3.23
2017-12-21T21:00:44.993Z,3.27
2017-12-21T21:03:12.460Z,3.24
2017-12-21T21:05:39.950Z,3.21
2017-12-21T21:08:07.420Z,3.22
2017-12-21T21:10:34.900Z,3.21
2017-12-21T21:13:02.361Z,3.34
2017-12-21T21:15:29.842Z,3.25
2017-12-21T21:17:57.310Z,3.30
2017-12-21T21:20:24.797Z,3.20
2017-12-21T21:22:52.261Z,3.28
2017-12-21T21:25:19.773Z,3.34
2017-12-21T21:27:47.253Z,3.37
2017-12-21T21:30:14.725Z,3.28
2017-12-21T21:32:42.216Z,3.32
2017-12-21T21:35:09.677Z,3.34
2017-12-21T21:37:37.157Z,3.35
2017-12-21T21:40:04.633Z,3.22
2017-12-21T21:42:32.133Z,3.19
2017-12-21T21:44:59.601Z,3.19
2017-12-21T21:47:27.081Z,3.21
2017-12-21T21:49:54.549Z,3.27
2017-12-21T21:52:22.042Z,3.35
2017-12-21T21:54:49.508Z,3.35
2017-12-21T21:57:16.989Z,3.41
2017-12-21T21:59:44.454Z,3.30
2017-12-21T22:02:11.941Z,3.20
2017-12-21T22:04:39.409Z,3.21
2017-12-21T22:07:06.893Z,3.17
2017-12-21T22:09:34.356Z,3.22
2017-12-21T22:12:01.845Z,3.19
2017-12-21T22:14:29.321Z,3.19
2017-12-21T22:16:56.813Z,3.27
2017-12-21T22:19:24.277Z,3.25
2017-12-21T22:21:51.757Z,3.23
2017-12-21T22:24:19.221Z,3.27
2017-12-21T22:26:46.700Z,3.27
2017-12-21T22:29:14.195Z,3.32
2017-12-21T22:31:41.685Z,3.30
2017-12-21T22:34:09.152Z,3.42
2017-12-21T22:36:36.645Z,3.32
2017-12-21T22:39:04.112Z,3.40
2017-12-21T22:41:31.595Z,3.36
2017-12-21T22:43:59.065Z,3.45
2017-12-21T22:46:26.545Z,3.42
2017-12-21T22:48:54.008Z,3.40
2017-12-21T22:51:21.492Z,3.39
2017-12-21T22:53:48.987Z,3.32
2017-12-21T22:56:16.465Z,3.28
2017-12-21T22:58:43.927Z,3.28
2017-12-21T23:01:11.389Z,3.34
2017-12-21T23:03:38.877Z,3.31
2017-12-21T23:06:06.343Z,3.32
2017-12-21T23:08:33.828Z,3.44
2017-12-21T23:11:01.290Z,3.34
2017-12-21T23:13:28.781Z,3.39
2017-12-21T23:15:56.249Z,3.38
2017-12-21T23:18:23.729Z,3.40
2017-12-21T23:20:51.247Z,3.36
2017-12-21T23:23:18.702Z,3.26
2017-12-21T23:25:46.165Z,3.33
2017-12-21T23:28:13.647Z,3.39
2017-12-21T23:30:41.113Z,3.22
2017-12-21T23:33:08.592Z,3.26
2017-12-21T23:35:36.061Z,3.22
2017-12-21T23:38:03.556Z,3.23
2017-12-21T23:40:31.017Z,3.23
2017-12-21T23:42:58.504Z,3.34
2017-12-21T23:45:25.969Z,3.25
2017-12-21T23:47:53.457Z,3.29
2017-12-21T23:50:20.934Z,3.26
2017-12-21T23:52:48.416Z,3.27
2017-12-21T23:55:15.895Z,3.26
2017-12-21T23:57:43.385Z,3.29
